sensor_id;sensor_type;location;lat;lon;timestamp;temperature;humidity
43949;DHT22;29429;51.074;13.764;2024-03-02T00:00:40;9.40;99.90
43949;DHT22;29429;51.074;13.764;2024-03-02T00:03:07;9.40;99.90
43949;DHT22;29429;51.074;13.764;2024-03-02T00:05:36;9.50;99.90
43949;DHT22;29429;51.074;13.764;2024-03-02T00:08:04;9.30;99.90
43949;DHT22;29429;51.074;13.764;2024-03-02T00:10:38;9.30;99.90
43949;DHT22;29429;51.074;13.764;2024-03-02T00:13:09;9.30;99.90
43949;DHT22;29429;51.074;13.764;2024-03-02T00:15:40;9.40;99.90
43949;DHT22;29429;51.074;13.764;2024-03-02T00:18:19;9.30;99.90
43949;DHT22;29429;51.074;13.764;2024-03-02T00:20:57;9.30;99.90
43949;DHT22;29429;51.074;13.764;2024-03-02T00:23:27;9.30;99.90
43949;DHT22;29429;51.074;13.764;2024-03-02T00:25:58;9.50;99.90
43949;DHT22;29429;51.074;13.764;2024-03-02T00:28:29;9.50;99.90
43949;DHT22;29429;51.074;13.764;2024-03-02T00:31:05;9.40;99.90
43949;DHT22;29429;51.074;13.764;2024-03-02T00:33:46;9.30;99.90
43949;DHT22;29429;51.074;13.764;2024-03-02T00:36:16;9.30;99.90
43949;DHT22;29429;51.074;13.764;2024-03-02T00:38:50;9.30;99.90
43949;DHT22;29429;51.074;13.764;2024-03-02T00:41:30;9.30;99.90
43949;DHT22;29429;51.074;13.764;2024-03-02T00:44:17;9.30;99.90
43949;DHT22;29429;51.074;13.764;2024-03-02T00:46:48;9.30;99.90
43949;DHT22;29429;51.074;13.764;2024-03-02T00:49:21;9.40;99.90
43949;DHT22;29429;51.074;13.764;2024-03-02T00:51:53;9.40;99.90
43949;DHT22;29429;51.074;13.764;2024-03-02T00:54:23;9.40;99.90
43949;DHT22;29429;51.074;13.764;2024-03-02T00:56:53;9.40;99.90
43949;DHT22;29429;51.074;13.764;2024-03-02T00:59:23;9.50;99.90
43949;DHT22;29429;51.074;13.764;2024-03-02T01:01:50;9.40;99.90
43949;DHT22;29429;51.074;13.764;2024-03-02T01:04:18;9.40;99.90
43949;DHT22;29429;51.074;13.764;2024-03-02T01:06:45;9.40;99.90
43949;DHT22;29429;51.074;13.764;2024-03-02T01:09:13;9.40;99.90
43949;DHT22;29429;51.074;13.764;2024-03-02T01:11:40;9.40;99.90
43949;DHT22;29429;51.074;13.764;2024-03-02T01:14:09;9.50;99.90
43949;DHT22;29429;51.074;13.764;2024-03-02T01:16:36;9.40;99.90
43949;DHT22;29429;51.074;13.764;2024-03-02T01:19:03;9.50;99.90
43949;DHT22;29429;51.074;13.764;2024-03-02T01:21:31;9.40;99.90
43949;DHT22;29429;51.074;13.764;2024-03-02T01:23:58;9.40;99.90
43949;DHT22;29429;51.074;13.764;2024-03-02T01:26:25;9.40;99.90
43949;DHT22;29429;51.074;13.764;2024-03-02T01:28:52;9.40;99.90
43949;DHT22;29429;51.074;13.764;2024-03-02T01:31:19;9.30;99.90
43949;DHT22;29429;51.074;13.764;2024-03-02T01:33:46;9.20;99.90
43949;DHT22;29429;51.074;13.764;2024-03-02T01:36:13;9.30;99.90
43949;DHT22;29429;51.074;13.764;2024-03-02T01:38:40;9.50;99.90
43949;DHT22;29429;51.074;13.764;2024-03-02T01:41:08;9.30;99.90
43949;DHT22;29429;51.074;13.764;2024-03-02T01:43:35;9.30;99.90
43949;DHT22;29429;51.074;13.764;2024-03-02T01:46:06;9.30;99.90
43949;DHT22;29429;51.074;13.764;2024-03-02T01:48:36;9.30;99.90
43949;DHT22;29429;51.074;13.764;2024-03-02T01:51:03;9.30;99.90
43949;DHT22;29429;51.074;13.764;2024-03-02T01:53:33;9.30;99.90
43949;DHT22;29429;51.074;13.764;2024-03-02T01:56:01;9.30;99.90
43949;DHT22;29429;51.074;13.764;2024-03-02T01:58:28;9.40;99.90
43949;DHT22;29429;51.074;13.764;2024-03-02T02:00:55;9.30;99.90
43949;DHT22;29429;51.074;13.764;2024-03-02T02:03:22;9.30;99.90
43949;DHT22;29429;51.074;13.764;2024-03-02T02:05:49;9.30;99.90
43949;DHT22;29429;51.074;13.764;2024-03-02T02:08:16;9.30;99.90
43949;DHT22;29429;51.074;13.764;2024-03-02T02:10:46;9.30;99.90
43949;DHT22;29429;51.074;13.764;2024-03-02T02:13:13;9.30;99.90
43949;DHT22;29429;51.074;13.764;2024-03-02T02:15:40;9.30;99.90
43949;DHT22;29429;51.074;13.764;2024-03-02T02:18:07;9.30;99.90
43949;DHT22;29429;51.074;13.764;2024-03-02T02:20:35;9.50;99.90
43949;DHT22;29429;51.074;13.764;2024-03-02T02:23:03;9.30;99.90
43949;DHT22;29429;51.074;13.764;2024-03-02T02:25:32;9.30;99.90
43949;DHT22;29429;51.074;13.764;2024-03-02T02:27:59;9.20;99.90
43949;DHT22;29429;51.074;13.764;2024-03-02T02:30:28;9.30;99.90
43949;DHT22;29429;51.074;13.764;2024-03-02T02:32:58;9.30;99.90
43949;DHT22;29429;51.074;13.764;2024-03-02T02:35:26;9.30;99.90
43949;DHT22;29429;51.074;13.764;2024-03-02T02:37:54;9.30;99.90
43949;DHT22;29429;51.074;13.764;2024-03-02T02:40:23;9.50;99.90
43949;DHT22;29429;51.074;13.764;2024-03-02T02:42:50;9.50;99.90
43949;DHT22;29429;51.074;13.764;2024-03-02T02:45:20;9.40;99.90
43949;DHT22;29429;51.074;13.764;2024-03-02T02:47:47;9.40;99.90
43949;DHT22;29429;51.074;13.764;2024-03-02T02:50:15;9.40;99.90
43949;DHT22;29429;51.074;13.764;2024-03-02T02:52:42;9.30;99.90
43949;DHT22;29429;51.074;13.764;2024-03-02T02:55:11;9.40;99.90
43949;DHT22;29429;51.074;13.764;2024-03-02T02:57:41;9.40;99.90
43949;DHT22;29429;51.074;13.764;2024-03-02T03:00:12;9.40;99.90
43949;DHT22;29429;51.074;13.764;2024-03-02T03:02:47;9.40;99.90
43949;DHT22;29429;51.074;13.764;2024-03-02T03:05:18;9.50;99.90
43949;DHT22;29429;51.074;13.764;2024-03-02T03:07:45;9.40;99.90
43949;DHT22;29429;51.074;13.764;2024-03-02T03:10:15;9.60;99.90
43949;DHT22;29429;51.074;13.764;2024-03-02T03:12:43;9.40;99.90
43949;DHT22;29429;51.074;13.764;2024-03-02T03:15:11;9.40;99.90
43949;DHT22;29429;51.074;13.764;2024-03-02T03:17:39;9.40;99.90
43949;DHT22;29429;51.074;13.764;2024-03-02T03:20:06;9.40;99.90
43949;DHT22;29429;51.074;13.764;2024-03-02T03:22:37;9.40;99.90
43949;DHT22;29429;51.074;13.764;2024-03-02T03:25:05;9.40;99.90
43949;DHT22;29429;51.074;13.764;2024-03-02T03:27:35;9.40;99.90
43949;DHT22;29429;51.074;13.764;2024-03-02T03:30:03;9.30;99.90
43949;DHT22;29429;51.074;13.764;2024-03-02T03:32:30;9.30;99.90
43949;DHT22;29429;51.074;13.764;2024-03-02T03:34:57;9.40;99.90
43949;DHT22;29429;51.074;13.764;2024-03-02T03:37:24;9.30;99.90
43949;DHT22;29429;51.074;13.764;2024-03-02T03:39:53;9.30;99.90
43949;DHT22;29429;51.074;13.764;2024-03-02T03:42:20;9.30;99.90
43949;DHT22;29429;51.074;13.764;2024-03-02T03:44:48;9.30;99.90
43949;DHT22;29429;51.074;13.764;2024-03-02T03:47:14;9.30;99.90
43949;DHT22;29429;51.074;13.764;2024-03-02T03:49:41;9.30;99.90
43949;DHT22;29429;51.074;13.764;2024-03-02T03:52:08;9.30;99.90
43949;DHT22;29429;51.074;13.764;2024-03-02T03:54:35;9.40;99.90
43949;DHT22;29429;51.074;13.764;2024-03-02T03:57:05;9.30;99.90
43949;DHT22;29429;51.074;13.764;2024-03-02T03:59:32;9.40;99.90
43949;DHT22;29429;51.074;13.764;2024-03-02T04:01:59;9.30;99.90
43949;DHT22;29429;51.074;13.764;2024-03-02T04:04:26;9.30;99.90
43949;DHT22;29429;51.074;13.764;2024-03-02T04:06:55;9.10;99.90
43949;DHT22;29429;51.074;13.764;2024-03-02T04:09:22;9.10;99.90
43949;DHT22;29429;51.074;13.764;2024-03-02T04:11:49;9.00;99.90
43949;DHT22;29429;51.074;13.764;2024-03-02T04:14:17;9.00;99.90
43949;DHT22;29429;51.074;13.764;2024-03-02T04:16:44;9.00;99.90
43949;DHT22;29429;51.074;13.764;2024-03-02T04:19:11;9.10;99.90
43949;DHT22;29429;51.074;13.764;2024-03-02T04:21:38;9.00;99.90
43949;DHT22;29429;51.074;13.764;2024-03-02T04:24:05;9.10;99.90
43949;DHT22;29429;51.074;13.764;2024-03-02T04:26:32;9.10;99.90
43949;DHT22;29429;51.074;13.764;2024-03-02T04:28:59;9.20;99.90
43949;DHT22;29429;51.074;13.764;2024-03-02T04:31:26;9.10;99.90
43949;DHT22;29429;51.074;13.764;2024-03-02T04:33:53;9.10;99.90
43949;DHT22;29429;51.074;13.764;2024-03-02T04:36:21;9.10;99.90
43949;DHT22;29429;51.074;13.764;2024-03-02T04:38:48;9.10;99.90
43949;DHT22;29429;51.074;13.764;2024-03-02T04:41:15;9.10;99.90
43949;DHT22;29429;51.074;13.764;2024-03-02T04:43:42;9.10;99.90
43949;DHT22;29429;51.074;13.764;2024-03-02T04:46:09;9.20;99.90
43949;DHT22;29429;51.074;13.764;2024-03-02T04:48:38;9.10;99.90
43949;DHT22;29429;51.074;13.764;2024-03-02T04:51:05;9.10;99.90
43949;DHT22;29429;51.074;13.764;2024-03-02T04:53:32;9.20;99.90
43949;DHT22;29429;51.074;13.764;2024-03-02T04:55:59;9.20;99.90
43949;DHT22;29429;51.074;13.764;2024-03-02T04:59:01;9.20;99.90
43949;DHT22;29429;51.074;13.764;2024-03-02T05:01:28;9.20;99.90
43949;DHT22;29429;51.074;13.764;2024-03-02T05:03:55;9.30;99.90
43949;DHT22;29429;51.074;13.764;2024-03-02T05:06:23;9.30;99.90
43949;DHT22;29429;51.074;13.764;2024-03-02T05:08:50;9.20;99.90
43949;DHT22;29429;51.074;13.764;2024-03-02T05:11:17;9.30;99.90
43949;DHT22;29429;51.074;13.764;2024-03-02T05:14:16;9.40;99.90
43949;DHT22;29429;51.074;13.764;2024-03-02T05:16:43;9.40;99.90
43949;DHT22;29429;51.074;13.764;2024-03-02T05:19:10;9.40;99.90
43949;DHT22;29429;51.074;13.764;2024-03-02T05:21:37;9.40;99.90
43949;DHT22;29429;51.074;13.764;2024-03-02T05:24:04;9.40;99.90
43949;DHT22;29429;51.074;13.764;2024-03-02T05:26:32;9.40;99.90
43949;DHT22;29429;51.074;13.764;2024-03-02T05:28:59;9.40;99.90
43949;DHT22;29429;51.074;13.764;2024-03-02T05:31:26;9.40;99.90
43949;DHT22;29429;51.074;13.764;2024-03-02T05:33:53;9.50;99.90
43949;DHT22;29429;51.074;13.764;2024-03-02T05:36:24;9.50;99.90
43949;DHT22;29429;51.074;13.764;2024-03-02T05:38:51;9.50;99.90
43949;DHT22;29429;51.074;13.764;2024-03-02T05:41:18;9.50;99.90
43949;DHT22;29429;51.074;13.764;2024-03-02T05:43:45;9.50;99.90
43949;DHT22;29429;51.074;13.764;2024-03-02T05:46:12;9.50;99.90
43949;DHT22;29429;51.074;13.764;2024-03-02T05:48:39;9.50;99.90
43949;DHT22;29429;51.074;13.764;2024-03-02T05:51:06;9.50;99.90
43949;DHT22;29429;51.074;13.764;2024-03-02T05:53:33;9.60;99.90
43949;DHT22;29429;51.074;13.764;2024-03-02T05:56:00;9.50;99.90
43949;DHT22;29429;51.074;13.764;2024-03-02T05:58:31;9.50;99.90
43949;DHT22;29429;51.074;13.764;2024-03-02T06:01:19;9.50;99.90
43949;DHT22;29429;51.074;13.764;2024-03-02T06:03:47;9.50;99.90
43949;DHT22;29429;51.074;13.764;2024-03-02T06:06:14;9.50;99.90
43949;DHT22;29429;51.074;13.764;2024-03-02T06:08:41;9.60;99.90
43949;DHT22;29429;51.074;13.764;2024-03-02T06:11:08;9.50;99.90
43949;DHT22;29429;51.074;13.764;2024-03-02T06:13:35;9.60;99.90
43949;DHT22;29429;51.074;13.764;2024-03-02T06:16:02;9.60;99.90
43949;DHT22;29429;51.074;13.764;2024-03-02T06:18:29;9.60;99.90
43949;DHT22;29429;51.074;13.764;2024-03-02T06:20:56;9.60;99.90
43949;DHT22;29429;51.074;13.764;2024-03-02T06:23:23;9.50;99.90
43949;DHT22;29429;51.074;13.764;2024-03-02T06:25:51;9.60;99.90
43949;DHT22;29429;51.074;13.764;2024-03-02T06:28:18;9.60;99.90
43949;DHT22;29429;51.074;13.764;2024-03-02T06:30:45;9.60;99.90
43949;DHT22;29429;51.074;13.764;2024-03-02T06:33:12;9.60;99.90
43949;DHT22;29429;51.074;13.764;2024-03-02T06:35:39;9.60;99.90
43949;DHT22;29429;51.074;13.764;2024-03-02T06:38:06;9.60;99.90
43949;DHT22;29429;51.074;13.764;2024-03-02T06:40:33;9.60;99.90
43949;DHT22;29429;51.074;13.764;2024-03-02T06:43:00;9.60;99.90
43949;DHT22;29429;51.074;13.764;2024-03-02T06:45:28;9.50;99.90
43949;DHT22;29429;51.074;13.764;2024-03-02T06:47:57;9.60;99.90
43949;DHT22;29429;51.074;13.764;2024-03-02T06:50:24;9.60;99.90
43949;DHT22;29429;51.074;13.764;2024-03-02T06:52:52;9.60;99.90
43949;DHT22;29429;51.074;13.764;2024-03-02T06:55:19;9.50;99.90
43949;DHT22;29429;51.074;13.764;2024-03-02T06:57:46;9.60;99.90
43949;DHT22;29429;51.074;13.764;2024-03-02T07:00:16;9.60;99.90
43949;DHT22;29429;51.074;13.764;2024-03-02T07:02:47;9.60;99.90
43949;DHT22;29429;51.074;13.764;2024-03-02T07:05:14;9.70;99.90
43949;DHT22;29429;51.074;13.764;2024-03-02T07:07:41;9.70;99.90
43949;DHT22;29429;51.074;13.764;2024-03-02T07:10:08;9.70;99.90
43949;DHT22;29429;51.074;13.764;2024-03-02T07:12:35;9.70;99.90
43949;DHT22;29429;51.074;13.764;2024-03-02T07:15:03;9.70;99.90
43949;DHT22;29429;51.074;13.764;2024-03-02T07:17:31;9.70;99.90
43949;DHT22;29429;51.074;13.764;2024-03-02T07:19:58;9.70;99.90
43949;DHT22;29429;51.074;13.764;2024-03-02T07:22:25;9.80;99.90
43949;DHT22;29429;51.074;13.764;2024-03-02T07:24:52;9.90;99.90
43949;DHT22;29429;51.074;13.764;2024-03-02T07:27:19;9.80;99.90
43949;DHT22;29429;51.074;13.764;2024-03-02T07:29:46;9.80;99.90
43949;DHT22;29429;51.074;13.764;2024-03-02T07:32:13;9.90;99.90
43949;DHT22;29429;51.074;13.764;2024-03-02T07:34:40;9.90;99.90
43949;DHT22;29429;51.074;13.764;2024-03-02T07:37:07;9.80;99.90
43949;DHT22;29429;51.074;13.764;2024-03-02T07:39:34;9.90;99.90
43949;DHT22;29429;51.074;13.764;2024-03-02T07:42:01;9.80;99.90
43949;DHT22;29429;51.074;13.764;2024-03-02T07:44:28;9.90;99.90
43949;DHT22;29429;51.074;13.764;2024-03-02T07:46:55;10.00;99.90
43949;DHT22;29429;51.074;13.764;2024-03-02T07:49:23;10.00;99.90
43949;DHT22;29429;51.074;13.764;2024-03-02T07:51:50;10.00;99.90
43949;DHT22;29429;51.074;13.764;2024-03-02T07:54:17;10.10;99.90
43949;DHT22;29429;51.074;13.764;2024-03-02T07:56:45;10.10;99.90
43949;DHT22;29429;51.074;13.764;2024-03-02T07:59:12;10.10;99.90
43949;DHT22;29429;51.074;13.764;2024-03-02T08:01:39;10.10;99.90
43949;DHT22;29429;51.074;13.764;2024-03-02T08:04:06;10.10;99.90
43949;DHT22;29429;51.074;13.764;2024-03-02T08:06:33;10.20;99.90
43949;DHT22;29429;51.074;13.764;2024-03-02T08:09:01;10.10;99.90
43949;DHT22;29429;51.074;13.764;2024-03-02T08:11:31;10.10;99.90
43949;DHT22;29429;51.074;13.764;2024-03-02T08:13:58;10.10;99.90
43949;DHT22;29429;51.074;13.764;2024-03-02T08:16:25;10.00;99.90
43949;DHT22;29429;51.074;13.764;2024-03-02T08:18:53;10.10;99.90
43949;DHT22;29429;51.074;13.764;2024-03-02T08:21:21;10.10;99.90
43949;DHT22;29429;51.074;13.764;2024-03-02T08:23:48;10.10;99.90
43949;DHT22;29429;51.074;13.764;2024-03-02T08:26:15;10.20;99.90
43949;DHT22;29429;51.074;13.764;2024-03-02T08:28:42;10.10;99.90
43949;DHT22;29429;51.074;13.764;2024-03-02T08:31:10;10.10;99.90
43949;DHT22;29429;51.074;13.764;2024-03-02T08:33:37;10.20;99.90
43949;DHT22;29429;51.074;13.764;2024-03-02T08:36:05;10.20;99.90
43949;DHT22;29429;51.074;13.764;2024-03-02T08:38:32;10.20;99.90
43949;DHT22;29429;51.074;13.764;2024-03-02T08:41:00;10.30;99.90
43949;DHT22;29429;51.074;13.764;2024-03-02T08:43:27;10.30;99.90
43949;DHT22;29429;51.074;13.764;2024-03-02T08:45:54;10.30;99.90
43949;DHT22;29429;51.074;13.764;2024-03-02T08:48:21;10.30;99.90
43949;DHT22;29429;51.074;13.764;2024-03-02T08:50:48;10.30;99.90
43949;DHT22;29429;51.074;13.764;2024-03-02T08:53:15;10.40;99.90
43949;DHT22;29429;51.074;13.764;2024-03-02T08:55:46;10.50;99.90
43949;DHT22;29429;51.074;13.764;2024-03-02T08:58:13;10.70;99.90
43949;DHT22;29429;51.074;13.764;2024-03-02T09:00:40;10.60;99.90
43949;DHT22;29429;51.074;13.764;2024-03-02T09:03:08;10.70;99.90
43949;DHT22;29429;51.074;13.764;2024-03-02T09:05:36;10.90;99.90
43949;DHT22;29429;51.074;13.764;2024-03-02T09:08:03;11.00;99.90
43949;DHT22;29429;51.074;13.764;2024-03-02T09:10:30;11.10;99.90
43949;DHT22;29429;51.074;13.764;2024-03-02T09:12:58;11.30;99.90
43949;DHT22;29429;51.074;13.764;2024-03-02T09:15:25;11.60;99.90
43949;DHT22;29429;51.074;13.764;2024-03-02T09:17:52;11.60;99.90
43949;DHT22;29429;51.074;13.764;2024-03-02T09:20:19;11.70;99.90
43949;DHT22;29429;51.074;13.764;2024-03-02T09:22:46;11.90;99.90
43949;DHT22;29429;51.074;13.764;2024-03-02T09:25:15;12.10;99.90
43949;DHT22;29429;51.074;13.764;2024-03-02T09:27:43;12.10;99.90
43949;DHT22;29429;51.074;13.764;2024-03-02T09:30:10;12.30;99.90
43949;DHT22;29429;51.074;13.764;2024-03-02T09:32:37;12.30;99.90
43949;DHT22;29429;51.074;13.764;2024-03-02T09:35:04;12.40;99.90
43949;DHT22;29429;51.074;13.764;2024-03-02T09:37:32;12.40;99.90
43949;DHT22;29429;51.074;13.764;2024-03-02T09:39:59;12.60;99.90
43949;DHT22;29429;51.074;13.764;2024-03-02T09:42:26;12.50;99.90
43949;DHT22;29429;51.074;13.764;2024-03-02T09:44:53;12.50;99.90
43949;DHT22;29429;51.074;13.764;2024-03-02T09:47:20;12.40;99.90
43949;DHT22;29429;51.074;13.764;2024-03-02T09:49:48;12.50;99.90
43949;DHT22;29429;51.074;13.764;2024-03-02T09:52:16;12.50;99.90
43949;DHT22;29429;51.074;13.764;2024-03-02T09:54:43;12.60;99.90
43949;DHT22;29429;51.074;13.764;2024-03-02T09:57:10;12.50;99.90
43949;DHT22;29429;51.074;13.764;2024-03-02T09:59:37;12.60;99.90
43949;DHT22;29429;51.074;13.764;2024-03-02T10:02:04;12.50;99.90
43949;DHT22;29429;51.074;13.764;2024-03-02T10:04:34;12.50;99.90
43949;DHT22;29429;51.074;13.764;2024-03-02T10:07:09;12.40;99.90
43949;DHT22;29429;51.074;13.764;2024-03-02T10:09:38;12.30;99.90
43949;DHT22;29429;51.074;13.764;2024-03-02T10:12:06;12.20;99.90
43949;DHT22;29429;51.074;13.764;2024-03-02T10:14:35;12.20;99.90
43949;DHT22;29429;51.074;13.764;2024-03-02T10:19:38;12.30;99.90
43949;DHT22;29429;51.074;13.764;2024-03-02T10:22:07;12.40;99.90
43949;DHT22;29429;51.074;13.764;2024-03-02T10:24:39;12.40;99.90
43949;DHT22;29429;51.074;13.764;2024-03-02T10:27:16;12.50;99.90
43949;DHT22;29429;51.074;13.764;2024-03-02T10:29:48;12.60;99.90
43949;DHT22;29429;51.074;13.764;2024-03-02T10:32:16;12.70;99.90
43949;DHT22;29429;51.074;13.764;2024-03-02T10:34:46;12.80;99.90
43949;DHT22;29429;51.074;13.764;2024-03-02T10:37:15;13.00;99.90
43949;DHT22;29429;51.074;13.764;2024-03-02T10:39:46;13.10;99.90
43949;DHT22;29429;51.074;13.764;2024-03-02T10:42:14;13.10;99.90
43949;DHT22;29429;51.074;13.764;2024-03-02T10:44:42;13.00;99.90
43949;DHT22;29429;51.074;13.764;2024-03-02T10:47:12;13.20;99.90
43949;DHT22;29429;51.074;13.764;2024-03-02T10:49:42;13.20;99.90
43949;DHT22;29429;51.074;13.764;2024-03-02T10:52:10;13.20;99.90
43949;DHT22;29429;51.074;13.764;2024-03-02T10:54:37;13.10;99.90
43949;DHT22;29429;51.074;13.764;2024-03-02T10:57:07;13.00;99.90
43949;DHT22;29429;51.074;13.764;2024-03-02T10:59:37;13.00;99.90
43949;DHT22;29429;51.074;13.764;2024-03-02T11:02:38;13.00;99.90
43949;DHT22;29429;51.074;13.764;2024-03-02T11:05:08;13.20;99.90
43949;DHT22;29429;51.074;13.764;2024-03-02T11:07:38;13.20;99.90
43949;DHT22;29429;51.074;13.764;2024-03-02T11:10:08;13.40;99.90
43949;DHT22;29429;51.074;13.764;2024-03-02T11:12:39;13.50;99.90
43949;DHT22;29429;51.074;13.764;2024-03-02T11:15:18;13.50;99.90
43949;DHT22;29429;51.074;13.764;2024-03-02T11:17:49;13.70;99.90
43949;DHT22;29429;51.074;13.764;2024-03-02T11:20:16;13.90;99.90
43949;DHT22;29429;51.074;13.764;2024-03-02T11:22:44;13.90;99.90
43949;DHT22;29429;51.074;13.764;2024-03-02T11:25:27;13.80;99.90
43949;DHT22;29429;51.074;13.764;2024-03-02T11:33:03;13.90;99.90
43949;DHT22;29429;51.074;13.764;2024-03-02T11:35:42;13.90;99.90
43949;DHT22;29429;51.074;13.764;2024-03-02T11:38:10;13.80;99.90
43949;DHT22;29429;51.074;13.764;2024-03-02T11:40:39;14.10;99.90
43949;DHT22;29429;51.074;13.764;2024-03-02T11:43:07;14.20;99.90
43949;DHT22;29429;51.074;13.764;2024-03-02T11:45:36;14.30;99.90
43949;DHT22;29429;51.074;13.764;2024-03-02T11:48:11;14.40;99.90
43949;DHT22;29429;51.074;13.764;2024-03-02T11:50:42;14.60;99.90
43949;DHT22;29429;51.074;13.764;2024-03-02T11:53:14;14.50;99.90
43949;DHT22;29429;51.074;13.764;2024-03-02T11:55:41;14.50;99.90
43949;DHT22;29429;51.074;13.764;2024-03-02T11:58:13;14.50;99.90
43949;DHT22;29429;51.074;13.764;2024-03-02T12:00:44;14.50;99.90
43949;DHT22;29429;51.074;13.764;2024-03-02T12:03:13;14.50;99.90
43949;DHT22;29429;51.074;13.764;2024-03-02T12:05:42;14.40;99.90
43949;DHT22;29429;51.074;13.764;2024-03-02T12:08:11;14.40;99.90
43949;DHT22;29429;51.074;13.764;2024-03-02T12:10:39;14.40;99.90
43949;DHT22;29429;51.074;13.764;2024-03-02T12:13:07;14.40;99.90
43949;DHT22;29429;51.074;13.764;2024-03-02T12:15:38;14.30;99.90
43949;DHT22;29429;51.074;13.764;2024-03-02T12:18:06;14.20;99.90
43949;DHT22;29429;51.074;13.764;2024-03-02T12:20:33;14.10;99.90
43949;DHT22;29429;51.074;13.764;2024-03-02T12:23:02;14.00;99.90
43949;DHT22;29429;51.074;13.764;2024-03-02T12:25:32;13.90;99.90
43949;DHT22;29429;51.074;13.764;2024-03-02T12:28:00;13.90;99.90
43949;DHT22;29429;51.074;13.764;2024-03-02T12:30:30;13.80;99.90
43949;DHT22;29429;51.074;13.764;2024-03-02T12:33:02;13.60;99.90
43949;DHT22;29429;51.074;13.764;2024-03-02T12:35:29;13.60;99.90
43949;DHT22;29429;51.074;13.764;2024-03-02T12:37:56;13.50;99.90
43949;DHT22;29429;51.074;13.764;2024-03-02T12:40:23;13.30;99.90
43949;DHT22;29429;51.074;13.764;2024-03-02T12:42:50;13.50;99.90
43949;DHT22;29429;51.074;13.764;2024-03-02T12:45:19;13.40;99.90
43949;DHT22;29429;51.074;13.764;2024-03-02T12:47:51;13.50;99.90
43949;DHT22;29429;51.074;13.764;2024-03-02T12:50:19;13.50;99.90
43949;DHT22;29429;51.074;13.764;2024-03-02T12:52:53;13.40;99.90
43949;DHT22;29429;51.074;13.764;2024-03-02T12:55:22;13.60;99.90
43949;DHT22;29429;51.074;13.764;2024-03-02T12:57:51;13.70;99.90
43949;DHT22;29429;51.074;13.764;2024-03-02T13:00:20;13.70;99.90
43949;DHT22;29429;51.074;13.764;2024-03-02T13:02:50;13.80;99.90
43949;DHT22;29429;51.074;13.764;2024-03-02T13:05:18;13.80;99.90
43949;DHT22;29429;51.074;13.764;2024-03-02T13:07:50;13.90;99.90
43949;DHT22;29429;51.074;13.764;2024-03-02T13:10:17;14.10;99.90
43949;DHT22;29429;51.074;13.764;2024-03-02T13:12:45;14.10;99.90
43949;DHT22;29429;51.074;13.764;2024-03-02T13:15:13;14.10;99.90
43949;DHT22;29429;51.074;13.764;2024-03-02T13:17:47;14.00;99.90
43949;DHT22;29429;51.074;13.764;2024-03-02T13:20:14;13.90;99.90
43949;DHT22;29429;51.074;13.764;2024-03-02T13:22:42;13.80;99.90
43949;DHT22;29429;51.074;13.764;2024-03-02T13:25:09;13.90;99.90
43949;DHT22;29429;51.074;13.764;2024-03-02T13:27:38;13.80;99.90
43949;DHT22;29429;51.074;13.764;2024-03-02T13:30:05;13.80;99.90
43949;DHT22;29429;51.074;13.764;2024-03-02T13:32:35;13.70;99.90
43949;DHT22;29429;51.074;13.764;2024-03-02T13:35:02;13.70;99.90
43949;DHT22;29429;51.074;13.764;2024-03-02T13:37:30;13.70;99.90
43949;DHT22;29429;51.074;13.764;2024-03-02T13:39:57;13.70;99.90
43949;DHT22;29429;51.074;13.764;2024-03-02T13:42:24;13.70;99.90
43949;DHT22;29429;51.074;13.764;2024-03-02T13:44:51;13.70;99.90
43949;DHT22;29429;51.074;13.764;2024-03-02T13:47:19;13.60;99.90
43949;DHT22;29429;51.074;13.764;2024-03-02T13:49:47;13.60;99.90
43949;DHT22;29429;51.074;13.764;2024-03-02T13:52:16;13.50;99.90
43949;DHT22;29429;51.074;13.764;2024-03-02T13:54:47;13.50;99.90
43949;DHT22;29429;51.074;13.764;2024-03-02T13:57:15;13.50;99.90
43949;DHT22;29429;51.074;13.764;2024-03-02T13:59:43;13.50;99.90
43949;DHT22;29429;51.074;13.764;2024-03-02T14:02:11;13.40;99.90
43949;DHT22;29429;51.074;13.764;2024-03-02T14:04:39;13.50;99.90
43949;DHT22;29429;51.074;13.764;2024-03-02T14:07:06;13.30;99.90
43949;DHT22;29429;51.074;13.764;2024-03-02T14:09:35;13.30;99.90
43949;DHT22;29429;51.074;13.764;2024-03-02T14:12:02;13.30;99.90
43949;DHT22;29429;51.074;13.764;2024-03-02T14:14:30;13.30;99.90
43949;DHT22;29429;51.074;13.764;2024-03-02T14:16:57;13.30;99.90
43949;DHT22;29429;51.074;13.764;2024-03-02T14:19:30;13.30;99.90
43949;DHT22;29429;51.074;13.764;2024-03-02T14:21:58;13.30;99.90
43949;DHT22;29429;51.074;13.764;2024-03-02T14:24:26;13.20;99.90
43949;DHT22;29429;51.074;13.764;2024-03-02T14:26:56;13.30;99.90
43949;DHT22;29429;51.074;13.764;2024-03-02T14:29:43;13.20;99.90
43949;DHT22;29429;51.074;13.764;2024-03-02T14:32:10;13.30;99.90
43949;DHT22;29429;51.074;13.764;2024-03-02T14:34:37;13.20;99.90
43949;DHT22;29429;51.074;13.764;2024-03-02T14:37:06;13.20;99.90
43949;DHT22;29429;51.074;13.764;2024-03-02T14:39:33;13.10;99.90
43949;DHT22;29429;51.074;13.764;2024-03-02T14:42:02;13.10;99.90
43949;DHT22;29429;51.074;13.764;2024-03-02T14:44:30;13.10;99.90
43949;DHT22;29429;51.074;13.764;2024-03-02T14:46:57;13.10;99.90
43949;DHT22;29429;51.074;13.764;2024-03-02T14:49:28;13.10;99.90
43949;DHT22;29429;51.074;13.764;2024-03-02T14:51:55;13.10;99.90
43949;DHT22;29429;51.074;13.764;2024-03-02T14:54:22;13.00;99.90
43949;DHT22;29429;51.074;13.764;2024-03-02T14:56:50;13.10;99.90
43949;DHT22;29429;51.074;13.764;2024-03-02T14:59:18;12.90;99.90
43949;DHT22;29429;51.074;13.764;2024-03-02T15:01:45;13.00;99.90
43949;DHT22;29429;51.074;13.764;2024-03-02T15:04:13;12.90;99.90
43949;DHT22;29429;51.074;13.764;2024-03-02T15:06:45;12.90;99.90
43949;DHT22;29429;51.074;13.764;2024-03-02T15:09:13;12.80;99.90
43949;DHT22;29429;51.074;13.764;2024-03-02T15:11:40;12.80;99.90
43949;DHT22;29429;51.074;13.764;2024-03-02T15:14:07;12.80;99.90
43949;DHT22;29429;51.074;13.764;2024-03-02T15:16:34;12.70;99.90
43949;DHT22;29429;51.074;13.764;2024-03-02T15:19:01;12.70;99.90
43949;DHT22;29429;51.074;13.764;2024-03-02T15:21:29;12.80;99.90
43949;DHT22;29429;51.074;13.764;2024-03-02T15:23:56;12.70;99.90
43949;DHT22;29429;51.074;13.764;2024-03-02T15:26:23;12.60;99.90
43949;DHT22;29429;51.074;13.764;2024-03-02T15:28:50;12.60;99.90
43949;DHT22;29429;51.074;13.764;2024-03-02T15:31:20;12.50;99.90
43949;DHT22;29429;51.074;13.764;2024-03-02T15:33:47;12.50;99.90
43949;DHT22;29429;51.074;13.764;2024-03-02T15:36:14;12.40;99.90
43949;DHT22;29429;51.074;13.764;2024-03-02T15:38:41;12.40;99.90